Time;durP1;ratioP1;P1;durP2;ratioP2;P2;SDS_P1;SDS_P2;PMS_P1;PMS_P2;Temp;Humidity;BMP_temperature;BMP_pressure;BME280_temperature;BME280_humidity;BME280_pressure;Samples;Min_cycle;Max_cycle;Signal;HPM_P1;HPM_P2
2021/07/06 00:00:23;;;;;;;2.75;0.90;;;;;;;25.29;48.95;100533.22;5060942;28;20048;-72
2021/07/06 00:03:08;;;;;;;4.60;0.90;;;;;;;25.24;49.17;100525.34;5067734;28;20051;-72
2021/07/06 00:05:53;;;;;;;2.08;1.13;;;;;;;25.24;49.27;100539.25;5061923;28;20064;-71
2021/07/06 00:08:38;;;;;;;3.10;0.93;;;;;;;25.21;49.39;100539.28;5055991;28;20040;-70
2021/07/06 00:11:23;;;;;;;2.78;0.70;;;;;;;25.22;49.28;100538.88;5066060;28;20044;-70
2021/07/06 00:14:09;;;;;;;4.45;1.15;;;;;;;25.21;49.17;100542.88;5062312;28;20552;-73
2021/07/06 00:17:50;;;;;;;2.55;0.95;;;;;;;25.20;49.23;100537.72;5061926;28;20056;-73
2021/07/06 00:20:38;;;;;;;9.45;1.30;;;;;;;25.11;49.31;100522.34;5074934;28;20110;-71
2021/07/06 00:23:28;;;;;;;1.52;0.82;;;;;;;25.13;49.73;100524.69;5081442;28;20093;-70
2021/07/06 00:26:13;;;;;;;12.38;1.30;;;;;;;25.09;49.86;100523.97;5073375;28;20249;-72
2021/07/06 00:28:59;;;;;;;1.00;0.80;;;;;;;25.09;49.75;100527.50;5069307;28;20067;-70
2021/07/06 00:31:44;;;;;;;8.20;1.35;;;;;;;25.06;49.91;100524.78;5064338;28;20048;-72
2021/07/06 00:34:28;;;;;;;2.83;1.08;;;;;;;25.07;49.67;100518.03;5057813;28;20060;-70
2021/07/06 00:37:13;;;;;;;2.10;0.90;;;;;;;25.07;49.92;100523.59;5073854;28;20047;-71
2021/07/06 00:39:59;;;;;;;4.68;1.40;;;;;;;25.05;49.98;100521.22;5077464;28;20063;-70
2021/07/06 00:42:46;;;;;;;2.88;2.17;;;;;;;25.04;50.08;100521.66;5074528;28;20044;-72
2021/07/06 00:45:31;;;;;;;3.63;1.65;;;;;;;25.04;50.19;100527.22;5058349;28;20517;-72
2021/07/06 00:48:16;;;;;;;2.63;0.90;;;;;;;25.03;50.21;100526.44;5056940;28;20512;-70
2021/07/06 00:51:01;;;;;;;3.35;1.13;;;;;;;25.02;50.26;100524.84;5056584;28;20043;-71
2021/07/06 00:53:46;;;;;;;3.13;1.38;;;;;;;25.02;50.46;100521.28;5057584;28;20639;-71
2021/07/06 00:56:31;;;;;;;3.67;1.20;;;;;;;24.99;50.56;100511.75;5074079;28;20056;-70
2021/07/06 00:59:18;;;;;;;2.10;1.17;;;;;;;24.98;50.43;100520.53;5066960;28;20044;-70
2021/07/06 01:02:03;;;;;;;2.75;1.20;;;;;;;24.96;50.49;100512.59;5063154;28;20048;-71
2021/07/06 01:04:49;;;;;;;3.38;1.10;;;;;;;24.94;50.60;100515.00;5061981;28;20509;-71
2021/07/06 01:07:35;;;;;;;1.58;1.30;;;;;;;24.93;50.68;100521.78;5055372;28;20060;-70
2021/07/06 01:10:20;;;;;;;4.47;1.00;;;;;;;24.90;50.71;100521.81;5070815;28;20064;-71
2021/07/06 01:13:05;;;;;;;3.85;0.82;;;;;;;24.91;50.74;100526.19;5059666;28;20056;-71
2021/07/06 01:15:50;;;;;;;1.27;1.10;;;;;;;24.93;50.82;100521.00;5063777;28;20043;-71
2021/07/06 01:18:35;;;;;;;3.00;1.30;;;;;;;24.92;50.62;100530.53;5056925;28;20505;-70
2021/07/06 01:21:20;;;;;;;1.92;1.20;;;;;;;24.90;50.76;100533.75;5069362;28;20529;-70
2021/07/06 01:24:05;;;;;;;6.90;1.42;;;;;;;24.87;50.55;100528.19;5064095;28;20052;-71
2021/07/06 01:26:51;;;;;;;1.10;1.00;;;;;;;24.87;50.67;100530.97;5067363;28;20068;-70
2021/07/06 01:29:36;;;;;;;2.10;1.30;;;;;;;24.84;50.93;100531.81;5058266;28;20052;-72
2021/07/06 01:32:21;;;;;;;3.28;1.30;;;;;;;24.84;50.82;100532.59;5064058;28;20044;-71
2021/07/06 01:35:08;;;;;;;2.22;1.40;;;;;;;24.80;50.82;100522.72;5076389;28;20039;-70
2021/07/06 01:37:56;;;;;;;1.55;1.33;;;;;;;24.80;50.95;100531.06;5059621;28;20398;-70
2021/07/06 01:40:41;;;;;;;1.85;1.48;;;;;;;24.75;51.02;100525.94;5057386;28;20056;-71
2021/07/06 01:43:26;;;;;;;3.10;1.60;;;;;;;24.77;50.89;100520.78;5062811;28;20071;-71
2021/07/06 01:46:12;;;;;;;3.92;1.40;;;;;;;24.75;51.04;100528.75;5072095;28;20063;-71
2021/07/06 01:48:57;;;;;;;2.97;1.75;;;;;;;24.71;51.26;100520.44;5066435;28;20044;-70
2021/07/06 01:51:43;;;;;;;2.33;1.45;;;;;;;24.73;51.02;100528.38;5059851;28;20055;-70
2021/07/06 01:54:28;;;;;;;5.20;2.03;;;;;;;24.69;50.77;100523.63;5075688;28;20059;-72
2021/07/06 01:57:14;;;;;;;4.15;1.40;;;;;;;24.69;50.68;100526.41;5079431;28;20043;-71
2021/07/06 01:59:59;;;;;;;5.70;1.55;;;;;;;24.69;50.89;100518.06;5081465;28;20047;-71
2021/07/06 02:02:44;;;;;;;2.47;1.52;;;;;;;24.70;50.92;100514.09;5062913;28;20048;-71
2021/07/06 02:05:37;;;;;;;3.45;1.70;;;;;;;24.68;50.73;100510.16;5061528;28;20067;-70
2021/07/06 02:08:22;;;;;;;4.78;2.10;;;;;;;24.62;50.79;100504.28;5067620;28;20048;-72
2021/07/06 02:11:06;;;;;;;6.03;1.52;;;;;;;24.65;50.73;100510.97;5076634;28;20055;-70
2021/07/06 02:13:51;;;;;;;5.03;1.77;;;;;;;24.60;50.62;100509.44;5069237;28;20048;-71
2021/07/06 02:16:37;;;;;;;3.40;2.13;;;;;;;24.62;50.55;100504.28;5061006;28;20060;-72
2021/07/06 02:19:22;;;;;;;5.20;1.60;;;;;;;24.60;50.51;100506.66;5061852;28;20040;-71
2021/07/06 02:22:06;;;;;;;4.80;2.15;;;;;;;24.64;50.65;100509.41;5075272;28;20401;-71
2021/07/06 02:24:52;;;;;;;6.75;1.60;;;;;;;24.62;50.50;100507.06;5064469;28;20044;-70
2021/07/06 02:27:37;;;;;;;3.25;1.92;;;;;;;24.59;50.45;100516.22;5067463;28;20044;-71
2021/07/06 02:30:23;;;;;;;12.40;1.50;;;;;;;24.58;50.49;100527.78;5080964;28;20048;-70
2021/07/06 02:33:07;;;;;;;1.73;1.40;;;;;;;24.54;50.66;100521.44;5057613;28;20051;-71
2021/07/06 02:35:52;;;;;;;1.88;1.40;;;;;;;24.52;50.66;100516.31;5069081;28;20047;-70
2021/07/06 02:38:38;;;;;;;3.85;1.90;;;;;;;24.47;50.68;100519.53;5055343;28;20052;-71
2021/07/06 02:41:23;;;;;;;2.75;1.20;;;;;;;24.46;50.80;100522.72;5060532;28;20047;-71
2021/07/06 02:44:08;;;;;;;2.85;1.52;;;;;;;24.44;50.81;100519.56;5060631;28;20056;-70
2021/07/06 02:46:54;;;;;;;5.47;1.35;;;;;;;24.33;50.70;100511.34;5069534;28;20051;-70
2021/07/06 02:49:39;;;;;;;10.90;1.45;;;;;;;24.34;50.64;100517.69;5073693;28;20406;-70
2021/07/06 02:52:24;;;;;;;2.40;1.33;;;;;;;24.32;50.67;100522.88;5058763;28;20047;-72
2021/07/06 02:55:10;;;;;;;1.83;1.20;;;;;;;24.33;50.47;100516.91;5066599;28;20052;-72
2021/07/06 02:57:55;;;;;;;2.33;1.25;;;;;;;24.31;50.55;100502.66;5057261;28;20409;-72
2021/07/06 03:00:40;;;;;;;4.57;1.50;;;;;;;24.34;50.62;100507.38;5062111;28;20414;-72
2021/07/06 03:03:25;;;;;;;6.18;2.00;;;;;;;24.32;50.31;100497.88;5059174;28;20060;-71
2021/07/06 03:06:10;;;;;;;2.95;1.38;;;;;;;24.32;50.40;100503.44;5071460;28;20047;-70
2021/07/06 03:08:56;;;;;;;5.72;1.30;;;;;;;24.34;50.59;100501.81;5062025;28;20107;-70
2021/07/06 03:11:42;;;;;;;5.10;1.17;;;;;;;24.31;50.78;100496.28;5074934;28;20045;-71
2021/07/06 03:14:27;;;;;;;5.25;1.40;;;;;;;24.33;50.52;100491.13;5067978;28;20048;-72
2021/07/06 03:17:13;;;;;;;3.13;1.50;;;;;;;24.35;50.35;100508.94;5067448;28;20048;-72
2021/07/06 03:20:00;;;;;;;9.07;1.52;;;;;;;24.35;50.52;100506.16;5073305;28;20043;-70
2021/07/06 03:22:45;;;;;;;3.40;1.55;;;;;;;24.33;50.63;100505.03;5074921;28;20055;-71
2021/07/06 03:25:32;;;;;;;4.45;1.38;;;;;;;24.33;50.47;100505.78;5069428;28;20119;-70
2021/07/06 03:28:17;;;;;;;7.88;1.63;;;;;;;24.28;50.77;100512.59;5071505;28;20516;-70
2021/07/06 03:31:02;;;;;;;3.67;1.35;;;;;;;24.25;50.94;100516.19;5077297;28;20059;-71
2021/07/06 03:33:47;;;;;;;2.45;1.40;;;;;;;24.23;50.53;100513.03;5058746;28;20051;-70
2021/07/06 03:36:32;;;;;;;3.72;1.80;;;;;;;24.20;50.61;100513.88;5066793;28;20409;-71
2021/07/06 03:39:17;;;;;;;1.70;1.17;;;;;;;24.14;50.81;100512.69;5062405;28;20052;-70
2021/07/06 03:42:04;;;;;;;3.13;1.40;;;;;;;24.12;51.00;100529.03;5074223;28;20051;-70
2021/07/06 03:44:49;;;;;;;3.60;1.55;;;;;;;24.06;50.82;100519.53;5070226;28;20043;-70
2021/07/06 03:47:34;;;;;;;5.65;1.38;;;;;;;24.06;50.60;100530.66;5064781;28;20047;-70
2021/07/06 03:50:24;;;;;;;1.65;1.20;;;;;;;24.10;50.70;100527.84;5071059;28;20044;-70
2021/07/06 03:53:09;;;;;;;7.03;2.50;;;;;;;24.08;50.90;100516.34;5066861;28;20047;-71
2021/07/06 03:55:54;;;;;;;2.40;1.27;;;;;;;24.09;50.67;100523.47;5055142;28;20048;-72
2021/07/06 03:58:39;;;;;;;4.40;1.27;;;;;;;24.08;50.88;100516.34;5053629;28;20044;-71
2021/07/06 04:01:24;;;;;;;2.42;1.35;;;;;;;24.08;50.67;100519.09;5066136;28;20047;-71
2021/07/06 04:04:09;;;;;;;5.07;1.75;;;;;;;24.08;50.33;100522.69;5060337;28;20059;-71
2021/07/06 04:06:54;;;;;;;3.47;1.63;;;;;;;24.07;50.43;100520.34;5073088;28;20071;-71
2021/07/06 04:09:39;;;;;;;4.40;1.58;;;;;;;24.01;50.60;100522.75;5060353;28;20051;-71
2021/07/06 04:12:25;;;;;;;3.15;1.50;;;;;;;24.03;50.46;100523.13;5063189;28;20068;-71
2021/07/06 04:15:12;;;;;;;4.88;1.48;;;;;;;24.04;50.35;100521.13;5069560;28;20047;-71
2021/07/06 04:17:57;;;;;;;13.13;2.05;;;;;;;24.03;50.49;100523.13;5059662;28;20044;-71
2021/07/06 04:20:42;;;;;;;3.90;1.33;;;;;;;24.06;50.49;100532.66;5073297;28;20035;-71
2021/07/06 04:23:27;;;;;;;9.68;2.25;;;;;;;24.03;50.09;100522.34;5069596;28;20063;-70
2021/07/06 04:26:12;;;;;;;5.40;2.40;;;;;;;24.04;50.45;100537.81;5064756;28;20059;-70
2021/07/06 04:28:57;;;;;;;3.08;1.63;;;;;;;23.98;50.03;100531.13;5055336;28;20052;-70
2021/07/06 04:31:42;;;;;;;5.25;2.05;;;;;;;23.99;50.18;100546.59;5059501;28;20052;-70
2021/07/06 04:34:27;;;;;;;2.88;1.45;;;;;;;23.96;50.06;100539.09;5067015;28;20054;-72
2021/07/06 04:37:13;;;;;;;4.80;1.60;;;;;;;23.94;49.97;100542.25;5072560;28;20048;-72
2021/07/06 04:39:59;;;;;;;6.50;1.80;;;;;;;23.95;50.05;100545.84;5067165;28;20043;-70
2021/07/06 04:42:44;;;;;;;8.90;1.55;;;;;;;23.94;49.88;100538.69;5071020;28;20517;-70
2021/07/06 04:45:29;;;;;;;3.13;1.42;;;;;;;23.94;50.13;100544.25;5072890;28;20056;-71
2021/07/06 04:48:14;;;;;;;8.48;1.95;;;;;;;23.96;50.17;100544.63;5061511;28;20413;-72
2021/07/06 04:51:05;;;;;;;5.28;1.60;;;;;;;23.99;50.42;100549.38;5064071;28;20039;-70
2021/07/06 04:53:50;;;;;;;6.88;1.65;;;;;;;24.00;50.24;100542.63;5065396;28;20048;-71
2021/07/06 04:56:35;;;;;;;10.25;1.55;;;;;;;24.02;51.44;100548.56;5059629;28;20324;-68
2021/07/06 04:59:20;;;;;;;5.85;1.40;;;;;;;24.09;51.33;100546.50;5063271;28;20059;-70
2021/07/06 05:02:06;;;;;;;12.23;1.80;;;;;;;24.15;51.61;100539.28;5072793;28;20445;-67
2021/07/06 05:04:51;;;;;;;6.07;1.40;;;;;;;24.22;52.01;100546.81;5064851;28;20048;-68
2021/07/06 05:07:36;;;;;;;15.07;1.63;;;;;;;24.28;51.95;100548.72;5059024;28;20052;-69
2021/07/06 05:10:22;;;;;;;2.90;1.27;;;;;;;24.35;51.67;100549.84;5056938;28;20052;-67
2021/07/06 05:13:07;;;;;;;7.15;1.58;;;;;;;24.40;51.62;100554.97;5058482;28;20063;-69
2021/07/06 05:15:52;;;;;;;8.77;1.70;;;;;;;24.42;51.88;100556.13;5069708;28;20047;-68
2021/07/06 05:18:36;;;;;;;5.45;1.20;;;;;;;24.44;51.85;100556.50;5055021;28;20517;-70
2021/07/06 05:21:21;;;;;;;4.40;1.25;;;;;;;24.50;51.87;100567.97;5059103;28;20407;-67
2021/07/06 05:24:07;;;;;;;6.60;1.63;;;;;;;24.53;51.86;100572.72;5064822;28;20051;-69
2021/07/06 05:26:52;;;;;;;4.43;1.25;;;;;;;24.55;51.77;100573.84;5067452;28;20693;-67
2021/07/06 05:29:37;;;;;;;6.63;1.42;;;;;;;24.57;51.77;100565.13;5070951;28;20063;-67
2021/07/06 05:32:22;;;;;;;5.57;1.50;;;;;;;24.59;51.70;100568.25;5070872;28;20052;-68
2021/07/06 05:35:08;;;;;;;5.47;1.83;;;;;;;24.61;51.84;100566.66;5068146;28;20517;-67
2021/07/06 05:37:53;;;;;;;3.45;1.30;;;;;;;24.63;51.99;100564.25;5063913;28;20047;-67
2021/07/06 05:40:39;;;;;;;1.83;1.10;;;;;;;24.67;51.89;100575.31;5070353;28;20051;-68
2021/07/06 05:43:26;;;;;;;5.47;1.35;;;;;;;24.68;51.89;100574.91;5061938;28;20047;-67
2021/07/06 05:46:12;;;;;;;2.60;1.40;;;;;;;24.71;51.88;100570.50;5073423;28;20055;-67
2021/07/06 05:48:56;;;;;;;4.05;1.20;;;;;;;24.74;51.76;100574.47;5055000;28;20055;-69
2021/07/06 05:51:41;;;;;;;2.78;1.20;;;;;;;24.76;51.60;100578.41;5063140;28;20047;-68
2021/07/06 05:54:26;;;;;;;4.47;1.52;;;;;;;24.78;51.68;100578.00;5072273;28;20048;-67
2021/07/06 05:57:11;;;;;;;4.90;1.27;;;;;;;24.79;51.56;100576.78;5072516;28;20067;-67
2021/07/06 06:00:01;;;;;;;3.85;1.48;;;;;;;24.81;51.76;100583.50;5067529;28;20040;-68
2021/07/06 06:02:46;;;;;;;2.40;1.23;;;;;;;24.84;51.54;100584.69;5062703;28;20047;-68
2021/07/06 06:05:32;;;;;;;4.70;1.38;;;;;;;24.86;51.51;100599.75;5067052;28;20048;-68
2021/07/06 06:08:17;;;;;;;3.10;1.05;;;;;;;24.84;51.49;100590.25;5058745;28;20409;-67
2021/07/06 06:11:03;;;;;;;2.83;1.20;;;;;;;24.89;51.49;100585.00;5065535;28;20047;-68
2021/07/06 06:13:48;;;;;;;2.28;1.10;;;;;;;24.91;51.41;100588.19;5061734;28;20047;-68
2021/07/06 06:16:33;;;;;;;4.30;1.80;;;;;;;24.94;51.29;100594.94;5067605;28;20055;-68
2021/07/06 06:19:18;;;;;;;3.97;1.55;;;;;;;24.96;51.25;100587.72;5060015;28;20045;-68
2021/07/06 06:22:03;;;;;;;7.68;1.45;;;;;;;25.00;50.99;100584.88;5058260;28;20613;-68
2021/07/06 06:24:48;;;;;;;2.95;1.77;;;;;;;25.02;51.16;100590.84;5069510;28;20052;-67
2021/07/06 06:27:33;;;;;;;2.67;0.93;;;;;;;25.07;51.10;100590.38;5065154;28;20047;-68
2021/07/06 06:30:19;;;;;;;3.30;1.38;;;;;;;25.10;51.19;100583.97;5072247;28;20047;-66
2021/07/06 06:33:04;;;;;;;4.63;1.77;;;;;;;25.14;50.95;100581.94;5063822;28;20048;-69
2021/07/06 06:35:49;;;;;;;5.00;1.27;;;;;;;25.16;50.80;100579.53;5065558;28;20052;-68
2021/07/06 06:38:34;;;;;;;2.45;1.00;;;;;;;25.17;50.95;100575.53;5061736;28;20047;-67
2021/07/06 06:41:19;;;;;;;4.10;1.23;;;;;;;25.21;50.16;100570.69;5067360;28;20067;-67
2021/07/06 06:44:04;;;;;;;7.57;1.17;;;;;;;25.24;49.43;100580.22;5057167;28;20528;-69
2021/07/06 06:46:49;;;;;;;5.47;1.13;;;;;;;25.32;48.63;100579.69;5058674;28;20405;-68
2021/07/06 06:49:34;;;;;;;5.00;1.75;;;;;;;25.36;49.06;100588.78;5072993;28;20059;-67
2021/07/06 06:52:19;;;;;;;2.85;0.93;;;;;;;25.52;46.65;100577.81;5074310;28;20047;-67
2021/07/06 06:55:05;;;;;;;4.10;1.30;;;;;;;25.69;45.92;100586.38;5075238;28;20520;-68
2021/07/06 06:57:50;;;;;;;2.13;1.20;;;;;;;25.76;45.71;100589.81;5075418;28;20524;-68
2021/07/06 07:00:35;;;;;;;2.80;0.85;;;;;;;25.75;46.49;100593.03;5070523;28;20063;-67
2021/07/06 07:03:20;;;;;;;4.70;1.35;;;;;;;25.79;45.77;100583.41;5077577;28;20119;-69
2021/07/06 07:06:06;;;;;;;3.40;0.98;;;;;;;25.76;47.09;100586.25;5076507;28;20406;-67
2021/07/06 07:08:51;;;;;;;3.67;1.35;;;;;;;25.85;45.62;100584.50;5073365;28;20048;-69
2021/07/06 07:11:36;;;;;;;3.10;1.10;;;;;;;25.79;47.14;100588.19;5058746;28;20528;-68
2021/07/06 07:14:21;;;;;;;1.27;0.82;;;;;;;25.75;47.83;100579.88;5056743;28;20112;-68
2021/07/06 07:17:06;;;;;;;1.20;0.73;;;;;;;25.89;45.53;100581.66;5061932;28;20047;-67
2021/07/06 07:19:52;;;;;;;3.25;1.13;;;;;;;25.86;47.19;100586.06;5077503;28;20051;-68
2021/07/06 07:22:38;;;;;;;4.97;1.30;;;;;;;25.96;45.92;100578.75;5075859;28;20508;-69
2021/07/06 07:25:23;;;;;;;2.05;1.23;;;;;;;26.15;45.48;100582.81;5068473;28;20422;-67
2021/07/06 07:28:09;;;;;;;3.55;1.05;;;;;;;26.09;45.86;100576.16;5055678;28;20056;-69
2021/07/06 07:30:54;;;;;;;2.67;0.82;;;;;;;26.11;46.07;100574.50;5057797;28;20418;-68
2021/07/06 07:33:39;;;;;;;1.98;0.98;;;;;;;26.16;45.68;100573.25;5060736;28;20040;-67
2021/07/06 07:36:25;;;;;;;1.48;0.93;;;;;;;26.20;46.10;100568.41;5078513;28;20058;-68
2021/07/06 07:39:11;;;;;;;2.40;1.27;;;;;;;26.26;45.91;100569.53;5076950;28;20398;-68
2021/07/06 07:41:56;;;;;;;4.10;1.52;;;;;;;26.30;44.82;100568.25;5069502;28;20043;-68
2021/07/06 07:44:44;;;;;;;2.92;1.00;;;;;;;26.41;44.54;100562.47;5078982;28;20063;-67
2021/07/06 07:47:28;;;;;;;2.72;0.88;;;;;;;26.49;43.72;100568.69;5076359;28;20417;-68
2021/07/06 07:50:14;;;;;;;2.35;0.98;;;;;;;26.48;43.81;100565.13;5074072;28;20047;-68
2021/07/06 07:52:59;;;;;;;1.52;0.85;;;;;;;26.54;43.80;100570.97;5070892;28;20830;-67
2021/07/06 07:55:43;;;;;;;2.10;0.95;;;;;;;26.72;40.12;100565.84;5063134;28;20397;-68
2021/07/06 07:58:28;;;;;;;1.45;0.80;;;;;;;26.65;42.95;100572.38;5053905;28;20052;-69
2021/07/06 08:01:13;;;;;;;3.13;0.98;;;;;;;26.75;42.39;100565.00;5061137;28;20044;-67
2021/07/06 08:03:58;;;;;;;2.72;0.93;;;;;;;26.78;42.59;100572.50;5060194;28;20075;-68
2021/07/06 08:06:43;;;;;;;2.72;0.70;;;;;;;26.88;43.42;100570.72;5072923;28;20052;-68
2021/07/06 08:09:28;;;;;;;3.97;0.80;;;;;;;26.87;43.42;100569.94;5052689;28;20533;-68
2021/07/06 08:12:13;;;;;;;2.03;1.00;;;;;;;26.85;43.20;100569.56;5057223;28;20048;-66
2021/07/06 08:14:58;;;;;;;2.28;0.77;;;;;;;26.90;42.82;100562.72;5054750;28;20051;-66
2021/07/06 08:17:43;;;;;;;4.63;0.85;;;;;;;26.90;42.75;100569.09;5053636;28;20406;-67
2021/07/06 08:20:29;;;;;;;1.90;0.80;;;;;;;26.88;43.41;100560.34;5073701;28;20047;-67
2021/07/06 08:23:13;;;;;;;1.13;0.80;;;;;;;27.07;42.03;100562.34;5072244;28;20055;-68
2021/07/06 08:25:58;;;;;;;7.38;1.08;;;;;;;27.03;42.58;100563.63;5059753;28;20048;-68
2021/07/06 08:28:45;;;;;;;1.73;0.70;;;;;;;26.96;43.52;100561.81;5055131;28;20048;-69
2021/07/06 08:31:30;;;;;;;3.25;0.77;;;;;;;27.06;43.06;100558.00;5069538;28;20063;-68
2021/07/06 08:34:15;;;;;;;2.72;0.93;;;;;;;27.16;42.41;100562.56;5072094;28;20063;-68
2021/07/06 08:37:00;;;;;;;1.15;0.80;;;;;;;27.09;43.13;100562.72;5076965;28;20098;-68
2021/07/06 08:39:46;;;;;;;1.30;0.77;;;;;;;27.06;42.57;100563.59;5060062;28;20043;-68
2021/07/06 08:42:31;;;;;;;1.20;0.60;;;;;;;27.15;40.92;100563.78;5053196;28;20047;-70
2021/07/06 08:45:16;;;;;;;1.30;0.70;;;;;;;27.12;42.09;100567.41;5057316;28;20061;-67
2021/07/06 08:48:01;;;;;;;0.98;0.60;;;;;;;27.24;40.89;100569.56;5053428;28;20052;-68
2021/07/06 08:50:46;;;;;;;1.67;0.88;;;;;;;27.30;42.03;100564.25;5071979;28;20528;-68
2021/07/06 08:53:31;;;;;;;5.30;0.60;;;;;;;27.24;42.77;100566.75;5072069;28;20055;-69
2021/07/06 08:56:16;;;;;;;3.60;1.10;;;;;;;27.24;42.30;100569.56;5071840;28;20059;-68
2021/07/06 08:59:01;;;;;;;1.27;0.88;;;;;;;27.32;42.31;100569.41;5061799;28;20410;-70
2021/07/06 09:01:46;;;;;;;2.47;0.70;;;;;;;27.36;40.74;100564.53;5070586;28;20047;-68
2021/07/06 09:04:44;;;;;;;3.67;0.90;;;;;;;27.40;41.63;100559.63;5072828;28;20047;-69
2021/07/06 09:07:41;;;;;;;1.42;0.90;;;;;;;27.42;42.37;100562.78;5071501;28;20063;-68
2021/07/06 09:10:32;;;;;;;1.92;1.00;;;;;;;27.44;41.51;100558.31;5073707;28;20051;-68
2021/07/06 09:13:28;;;;;;;1.02;0.80;;;;;;;27.50;41.55;100562.22;5070915;28;20043;-67
2021/07/06 09:16:25;;;;;;;0.57;0.57;;;;;;;27.48;42.08;100558.25;5076151;28;20413;-70
2021/07/06 09:19:24;;;;;;;3.78;1.10;;;;;;;27.54;42.66;100559.31;5073024;28;20154;-67
2021/07/06 09:22:30;;;;;;;2.42;0.70;;;;;;;27.54;42.01;100554.53;5071227;28;20094;-69
2021/07/06 09:25:15;;;;;;;2.13;0.95;;;;;;;27.76;40.12;100554.81;5073134;28;20043;-70
2021/07/06 09:28:00;;;;;;;1.13;0.60;;;;;;;27.78;39.63;100546.00;5073826;28;20052;-70
2021/07/06 09:30:45;;;;;;;3.30;0.90;;;;;;;27.83;38.70;100546.25;5080076;28;20517;-68
2021/07/06 09:33:29;;;;;;;2.58;0.88;;;;;;;27.85;38.31;100537.41;5077662;28;20055;-68
2021/07/06 09:36:41;;;;;;;0.73;0.60;;;;;;;27.88;38.54;100534.56;5074048;28;20059;-68
2021/07/06 09:39:26;;;;;;;1.38;0.80;;;;;;;27.89;38.94;100536.09;5058962;28;20044;-69
2021/07/06 09:42:15;;;;;;;0.90;0.65;;;;;;;27.80;41.48;100533.16;5069813;28;20556;-69
2021/07/06 09:45:00;;;;;;;1.30;0.85;;;;;;;27.74;41.60;100528.50;5055488;28;20052;-69
2021/07/06 09:48:06;;;;;;;1.35;0.77;;;;;;;28.08;38.80;100538.03;5058536;28;20048;-69
2021/07/06 09:51:08;;;;;;;1.20;0.60;;;;;;;28.15;38.34;100534.28;5055681;28;20056;-69
2021/07/06 09:53:54;;;;;;;2.63;1.10;;;;;;;28.17;40.27;100528.25;5059654;28;20052;-69
2021/07/06 09:56:43;;;;;;;1.73;0.82;;;;;;;28.25;38.25;100538.78;5069618;28;20063;-68
2021/07/06 09:59:28;;;;;;;0.98;0.40;;;;;;;28.16;39.68;100530.25;5079797;28;20054;-68
2021/07/06 10:02:19;;;;;;;5.63;1.02;;;;;;;28.19;39.50;100546.13;5078889;28;20099;-68
2021/07/06 10:05:08;;;;;;;0.95;0.50;;;;;;;28.07;40.28;100535.66;5079126;28;20098;-69
2021/07/06 10:07:54;;;;;;;1.63;0.93;;;;;;;28.06;39.90;100534.09;5070901;28;20055;-69
2021/07/06 10:10:39;;;;;;;1.42;0.95;;;;;;;28.30;39.49;100537.47;5064085;28;20048;-68
2021/07/06 10:13:24;;;;;;;4.28;2.22;;;;;;;28.28;40.04;100529.53;5068341;28;20444;-69
2021/07/06 10:16:09;;;;;;;1.85;0.88;;;;;;;28.41;38.87;100535.16;5061672;28;20044;-68
2021/07/06 10:18:56;;;;;;;1.33;0.70;;;;;;;28.35;40.10;100534.13;5057629;28;20051;-70
2021/07/06 10:21:41;;;;;;;0.68;0.68;;;;;;;28.53;39.71;100540.03;5066003;28;20055;-69
2021/07/06 10:24:26;;;;;;;2.42;0.60;;;;;;;28.39;39.68;100530.00;5061479;28;20056;-69
2021/07/06 10:27:24;;;;;;;5.88;0.88;;;;;;;28.64;38.43;100534.94;5065015;28;20055;-69
2021/07/06 10:30:15;;;;;;;2.28;0.77;;;;;;;28.70;37.62;100532.38;5063671;28;20043;-68
2021/07/06 10:33:00;;;;;;;1.05;0.60;;;;;;;28.81;38.38;100530.06;5068549;28;20047;-67
2021/07/06 10:35:47;;;;;;;1.60;0.65;;;;;;;28.73;38.14;100523.13;5067064;28;20044;-67
2021/07/06 10:38:32;;;;;;;5.65;0.80;;;;;;;28.78;37.98;100539.38;5060977;28;20047;-67
2021/07/06 10:41:42;;;;;;;2.97;0.55;;;;;;;28.72;39.46;100535.53;5061456;28;20052;-67
2021/07/06 10:44:32;;;;;;;1.50;0.70;;;;;;;28.75;37.57;100529.81;5062148;28;20048;-69
2021/07/06 10:47:37;;;;;;;5.00;0.60;;;;;;;29.15;35.49;100540.66;5063544;28;20528;-68
2021/07/06 10:50:29;;;;;;;0.65;0.52;;;;;;;29.03;37.17;100535.81;5063894;28;20040;-67
2021/07/06 10:53:20;;;;;;;1.05;0.80;;;;;;;28.91;38.21;100535.34;5068618;28;20053;-67
2021/07/06 10:56:11;;;;;;;0.50;0.50;;;;;;;28.99;38.13;100540.75;5064454;28;20040;-68
2021/07/06 10:59:00;;;;;;;0.70;0.70;;;;;;;29.09;36.27;100534.03;5059173;28;20052;-69
2021/07/06 11:01:45;;;;;;;0.98;0.68;;;;;;;29.17;36.03;100538.97;5063673;28;20052;-69
2021/07/06 11:04:36;;;;;;;1.50;0.60;;;;;;;29.10;38.10;100538.41;5065828;28;20043;-69
2021/07/06 11:07:39;;;;;;;1.52;0.60;;;;;;;29.05;38.73;100530.56;5062118;28;20039;-69
2021/07/06 11:10:32;;;;;;;0.93;0.45;;;;;;;28.94;39.20;100524.50;5061186;28;20401;-68
2021/07/06 11:13:19;;;;;;;2.55;1.10;;;;;;;29.05;37.79;100525.75;5063108;28;20425;-67
2021/07/06 11:16:36;;;;;;;2.38;0.68;;;;;;;29.23;37.46;100533.59;5062483;28;20052;-67
2021/07/06 11:19:34;;;;;;;2.53;0.80;;;;;;;29.00;38.15;100528.31;5067580;28;20044;-67
2021/07/06 11:22:19;;;;;;;1.05;0.70;;;;;;;29.13;37.55;100520.72;5056272;28;20047;-69
2021/07/06 11:25:34;;;;;;;3.08;0.82;;;;;;;29.67;35.70;100523.41;5063407;28;20048;-68
2021/07/06 11:28:26;;;;;;;2.38;1.02;;;;;;;29.98;34.50;100518.00;5065260;28;20056;-68
2021/07/06 11:31:17;;;;;;;2.85;1.00;;;;;;;30.16;33.99;100518.97;5059095;28;20048;-68
2021/07/06 11:34:04;;;;;;;3.42;1.20;;;;;;;30.31;34.80;100518.44;5056381;28;20158;-68
2021/07/06 11:36:49;;;;;;;1.73;0.77;;;;;;;30.44;34.97;100508.72;5062165;28;20039;-68
2021/07/06 11:39:34;;;;;;;11.73;1.30;;;;;;;30.47;34.60;100518.31;5062419;28;20493;-68
2021/07/06 11:42:29;;;;;;;2.00;0.75;;;;;;;30.67;33.96;100515.16;5063044;28;20047;-68
2021/07/06 11:45:14;;;;;;;10.30;0.95;;;;;;;30.64;33.43;100513.25;5063910;28;20362;-69
2021/07/06 11:48:05;;;;;;;2.53;1.10;;;;;;;30.73;33.66;100514.09;5062508;28;20616;-69
2021/07/06 11:50:51;;;;;;;1.55;1.00;;;;;;;30.80;33.56;100505.41;5066706;28;20070;-69
2021/07/06 11:53:41;;;;;;;3.83;0.85;;;;;;;30.92;33.07;100512.19;5056165;28;20059;-68
2021/07/06 11:56:28;;;;;;;1.30;0.90;;;;;;;30.94;33.21;100504.06;5064074;28;20512;-67
2021/07/06 11:59:13;;;;;;;1.85;1.10;;;;;;;30.99;33.58;100507.06;5064494;28;20526;-68
2021/07/06 12:02:03;;;;;;;4.90;1.00;;;;;;;31.06;33.44;100505.25;5067379;28;20043;-68
2021/07/06 12:04:47;;;;;;;1.75;1.02;;;;;;;31.10;32.97;100494.66;5064343;28;20059;-68
2021/07/06 12:07:34;;;;;;;2.42;1.00;;;;;;;31.19;32.17;100501.09;5064326;28;20051;-68
2021/07/06 12:10:20;;;;;;;3.17;1.13;;;;;;;31.24;32.74;100497.69;5064555;28;20075;-68
2021/07/06 12:13:05;;;;;;;2.05;1.20;;;;;;;31.24;32.85;100503.31;5069668;28;20115;-68
2021/07/06 12:15:54;;;;;;;2.38;0.80;;;;;;;31.30;32.65;100503.47;5060279;28;20051;-68
2021/07/06 12:18:59;;;;;;;3.75;1.10;;;;;;;31.43;32.73;100507.75;5061130;28;20055;-68
2021/07/06 12:21:46;;;;;;;2.45;1.27;;;;;;;31.39;32.13;100500.72;5060519;28;20535;-68
2021/07/06 12:24:33;;;;;;;2.78;1.13;;;;;;;31.34;32.54;100499.28;5063294;28;20055;-68
2021/07/06 12:27:18;;;;;;;1.58;0.88;;;;;;;31.26;32.85;100489.59;5063346;28;20128;-68
2021/07/06 12:30:03;;;;;;;5.70;1.13;;;;;;;31.14;32.96;100495.31;5064264;28;20516;-68
2021/07/06 12:33:08;;;;;;;1.80;1.00;;;;;;;31.27;33.54;100499.59;5060724;28;20055;-68
2021/07/06 12:35:55;;;;;;;3.00;0.95;;;;;;;31.29;33.13;100504.75;5059220;28;20040;-68
2021/07/06 12:38:40;;;;;;;2.33;0.68;;;;;;;31.30;33.03;100509.09;5065110;28;20055;-68
2021/07/06 12:41:25;;;;;;;1.17;0.88;;;;;;;31.28;33.05;100495.53;5062012;28;20043;-68
2021/07/06 12:44:11;;;;;;;3.30;0.90;;;;;;;31.29;32.32;100491.44;5064462;28;20059;-69
2021/07/06 12:47:30;;;;;;;1.67;1.10;;;;;;;31.25;32.68;100492.84;5061418;28;20112;-68
2021/07/06 12:50:20;;;;;;;2.10;1.02;;;;;;;31.32;32.90;100492.56;5064937;28;20405;-68
2021/07/06 12:53:06;;;;;;;2.63;1.17;;;;;;;31.40;33.00;100486.19;5061328;28;20051;-70
2021/07/06 12:55:50;;;;;;;2.92;0.80;;;;;;;31.40;32.70;100485.41;5060432;28;20059;-68